Terminal Aerodrome Forecast
Issued by NWS

Home | Current Version | Previous Version | Text Only | Print | Product List | Glossary On
Versions: 1 2 3 4 5 6 7 8 9 10 11 12 13 14
000
FTUS42 KFFC 282344
TAFRYY
TAF
KRYY 282344Z 2900/2924 11006KT P6SM SCT050 SCT250
     FM290600 10005KT P6SM SCT015
     FM290900 10005KT 4SM BR BKN009
     FM291400 12010KT P6SM VCSH BKN015 OVC035 PROB30 2915/2918 6SM
      -SHRA BKN010
     FM291800 12010KT 6SM -SHRA BKN030 OVC080
      AMD NOT SKED 2904/2912=

USA.gov is the U.S. government's official web portal to all federal, state and local government web resources and services.